Norwich, North Dakota
Current Conditions -  °F | °C
As of 7:54 AM on Saturday 20 Dec 2014 (Local Time) from KMOT Reporting Station
Moderate Fog Moderate Fog  
Wind Chill: 15°   Ceiling: 100
Heat Index: 23°   Visibility: 0.25mi
Dew Point: 21°   Wind: 7mph
Humidity: 92%   Direction: 160°SSE
Pressure: 29.88"   Gusts: NA
Location:  48.25°N, 100.99°W
Report Text: KMOT 201354Z 16006KT 1/4SM FZFG VV001 M05/M06 A2988 RMK AO2 SLP146 I1001 T10501061
Loading
Personal Weather Stations






























Interactive Weather Map New forecast layout! Learn more

10-Day Weather Forecast

Advertisements
Track Severe Weather on mobile